»·PEaware :: N805RJ KBLH-L35

N805RJ :: KBLH-L35

FLIGHT INFORMATION

Flight Status: Arrived
Operator: Privately registered:
United States
More flights under this callsign
Pilot: Rickie J. (22768)
Aircraft: CESSNA 172 SKYHAWK
(C172)
More flights by this aircraft type
Origin: KBLH Blythe
United States
Destination: L35 Big Bear City
United States
More flights between these airports :: More routes between these airports
Route: BLH V64 V137 V386 OKACO
File this flight plan on PilotEdge
Remarks:
Altitude:
(Current/Filed)
12,500ft
Speed:
(Current/Filed)
120kts
Departed: 27-Jun-20 08:06 AM
Arrived: 27-Jun-20 09:23 AM
Distance/Time
Traveled:
113nm/1:17
Distance/Time
To Go:
Arrived

Flight Plot

Page will automatically refresh every two minutes.

Flight plan parsing failed; only flown route is shown


Map Options




Map Legend


Flown Route
Filed Route
Departure Airport
Arrival Airport
Navaid (VOR, NDB)
Fix

Horizontal Profiles

Position Reports

Time Latitude Longitude Heading Altitude Ground
Speed
27-Jun-20 07:28 33.614002 -114.712365 355 403ft 0kts
27-Jun-20 07:29 33.614002 -114.712365 355 403ft 0kts
27-Jun-20 07:30 33.614002 -114.712365 355 403ft 0kts
27-Jun-20 07:31 33.614002 -114.712365 355 403ft 0kts
27-Jun-20 07:32 33.614002 -114.712365 355 403ft 0kts
27-Jun-20 07:33 33.614002 -114.712365 355 403ft 0kts
27-Jun-20 07:34 33.614002 -114.712365 355 403ft 0kts
27-Jun-20 07:35 33.614002 -114.712365 355 403ft 0kts
27-Jun-20 07:36 33.614002 -114.712365 355 403ft 0kts
27-Jun-20 07:37 33.614002 -114.712365 355 403ft 0kts
27-Jun-20 07:38 33.614002 -114.712365 355 403ft 0kts
27-Jun-20 07:39 33.614002 -114.712365 355 403ft 0kts
27-Jun-20 07:40 33.614002 -114.712365 355 403ft 0kts
27-Jun-20 07:41 33.614002 -114.712365 355 403ft 0kts
27-Jun-20 07:42 33.614002 -114.712365 355 403ft 0kts
27-Jun-20 07:43 33.614002 -114.712365 355 403ft 0kts
27-Jun-20 07:44 33.614002 -114.712365 355 403ft 0kts
27-Jun-20 07:45 33.614002 -114.712365 355 403ft 0kts
27-Jun-20 07:46 33.614002 -114.712365 355 403ft 0kts
27-Jun-20 07:47 33.614002 -114.712365 355 403ft 0kts
27-Jun-20 07:48 33.614493 -114.712371 2 403ft 3kts
27-Jun-20 07:49 33.615146 -114.713001 267 403ft 3kts
27-Jun-20 07:50 33.615144 -114.714673 269 403ft 6kts
27-Jun-20 07:51 33.616401 -114.715152 0 403ft 7kts
27-Jun-20 07:52 33.618933 -114.715143 0 403ft 6kts
27-Jun-20 07:53 33.619221 -114.715850 269 403ft 0kts
27-Jun-20 07:54 33.619253 -114.716667 309 403ft 1kts
27-Jun-20 07:55 33.620800 -114.716783 1 403ft 8kts
27-Jun-20 07:56 33.623542 -114.716790 356 403ft 11kts
27-Jun-20 07:57 33.626798 -114.716771 357 403ft 12kts
27-Jun-20 07:58 33.629755 -114.716520 48 403ft 7kts
27-Jun-20 07:59 33.629980 -114.715984 323 403ft 0kts
27-Jun-20 08:00 33.629980 -114.715984 323 403ft 0kts
27-Jun-20 08:01 33.629980 -114.715984 324 403ft 0kts
27-Jun-20 08:02 33.629980 -114.715984 324 403ft 0kts
27-Jun-20 08:03 33.630015 -114.716133 257 403ft 1kts
27-Jun-20 08:04 33.629455 -114.716735 178 403ft 11kts
27-Jun-20 08:05 33.608317 -114.716507 179 622ft 100kts
27-Jun-20 08:07 33.583107 -114.715564 177 1497ft 83kts
27-Jun-20 08:08 33.583742 -114.693348 15 2243ft 105kts
27-Jun-20 08:09 33.614314 -114.693072 334 2859ft 114kts
27-Jun-20 08:10 33.614364 -114.724298 238 3473ft 104kts
27-Jun-20 08:11 33.599636 -114.754136 236 4071ft 103kts
27-Jun-20 08:12 33.596956 -114.789047 266 4671ft 105kts
27-Jun-20 08:13 33.597775 -114.823922 267 5271ft 103kts
27-Jun-20 08:14 33.598709 -114.858047 267 5872ft 101kts
27-Jun-20 08:15 33.599626 -114.891132 267 6471ft 97kts
27-Jun-20 08:16 33.600531 -114.924398 267 6989ft 100kts
27-Jun-20 08:17 33.601440 -114.957633 267 7487ft 100kts
27-Jun-20 08:18 33.602315 -114.990382 267 7920ft 103kts
27-Jun-20 08:19 33.603191 -115.023585 268 8308ft 103kts
27-Jun-20 08:20 33.604083 -115.056681 268 8695ft 101kts
27-Jun-20 08:21 33.604937 -115.089572 267 9053ft 102kts
27-Jun-20 08:21 33.605664 -115.117933 267 9303ft 105kts
27-Jun-20 08:23 33.606720 -115.159078 266 9651ft 107kts
27-Jun-20 08:24 33.607629 -115.195149 266 9953ft 107kts
27-Jun-20 08:25 33.608521 -115.231076 266 10254ft 107kts
27-Jun-20 08:26 33.609405 -115.266956 266 10555ft 106kts
27-Jun-20 08:26 33.610123 -115.296661 266 10805ft 106kts
27-Jun-20 08:28 33.611069 -115.337867 267 11154ft 105kts
27-Jun-20 08:28 33.611749 -115.367065 267 11403ft 104kts
27-Jun-20 08:29 33.612557 -115.401663 267 11701ft 103kts
27-Jun-20 08:30 33.613334 -115.435228 268 11992ft 102kts
27-Jun-20 08:31 33.614127 -115.470057 268 12136ft 111kts
27-Jun-20 08:32 33.614975 -115.506876 269 12234ft 114kts
27-Jun-20 08:33 33.615827 -115.544514 269 12329ft 115kts
27-Jun-20 08:34 33.616664 -115.582239 269 12423ft 115kts
27-Jun-20 08:35 33.617485 -115.619909 269 12505ft 116kts
27-Jun-20 08:36 33.618300 -115.657710 269 12504ft 120kts
27-Jun-20 08:37 33.619138 -115.696942 269 12504ft 121kts
27-Jun-20 08:38 33.619972 -115.736750 269 12504ft 121kts
27-Jun-20 08:39 33.620804 -115.777325 269 12504ft 121kts
27-Jun-20 08:40 33.621624 -115.818033 269 12504ft 121kts
27-Jun-20 08:41 33.622426 -115.858573 269 12504ft 121kts
27-Jun-20 08:42 33.623217 -115.899196 269 12504ft 121kts
27-Jun-20 08:43 33.623994 -115.939822 269 12504ft 121kts
27-Jun-20 08:44 33.624742 -115.979552 269 12504ft 121kts
27-Jun-20 08:45 33.625464 -116.018594 269 12504ft 121kts
27-Jun-20 08:46 33.626174 -116.057658 269 12504ft 121kts
27-Jun-20 08:47 33.626875 -116.096911 269 12503ft 121kts
27-Jun-20 08:48 33.627561 -116.136041 269 12503ft 121kts
27-Jun-20 08:49 33.640113 -116.171027 310 12503ft 124kts
27-Jun-20 08:50 33.664847 -116.200578 313 12503ft 125kts
27-Jun-20 08:51 33.690187 -116.229228 314 12503ft 125kts
27-Jun-20 08:52 33.714758 -116.256674 314 12503ft 125kts
27-Jun-20 08:53 33.739337 -116.284071 314 12503ft 125kts
27-Jun-20 08:54 33.763905 -116.311457 314 12503ft 125kts
27-Jun-20 08:55 33.788486 -116.338876 314 12503ft 125kts
27-Jun-20 08:56 33.812992 -116.366231 314 12553ft 122kts
27-Jun-20 08:57 33.837220 -116.393310 314 12511ft 127kts
27-Jun-20 08:58 33.861958 -116.420961 314 12505ft 125kts
27-Jun-20 08:59 33.892819 -116.438232 338 12505ft 127kts
27-Jun-20 09:00 33.925371 -116.451377 339 12505ft 127kts
27-Jun-20 09:01 33.958248 -116.464253 339 12505ft 127kts
27-Jun-20 09:02 33.990738 -116.476939 339 12505ft 127kts
27-Jun-20 09:03 34.022892 -116.489500 339 12623ft 120kts
27-Jun-20 09:04 34.055488 -116.502250 339 12528ft 130kts
27-Jun-20 09:05 34.089024 -116.515373 340 12506ft 128kts
27-Jun-20 09:06 34.121941 -116.528271 340 12508ft 127kts
27-Jun-20 09:07 34.154696 -116.541108 340 12506ft 126kts
27-Jun-20 09:08 34.186774 -116.553699 339 12497ft 124kts
27-Jun-20 09:09 34.219431 -116.566501 340 12104ft 132kts
27-Jun-20 09:10 34.254414 -116.580957 322 11499ft 134kts
27-Jun-20 09:11 34.264206 -116.622202 269 10897ft 131kts
27-Jun-20 09:12 34.263553 -116.666018 264 10296ft 131kts
27-Jun-20 09:13 34.261421 -116.709587 263 9762ft 119kts
27-Jun-20 09:14 34.259780 -116.745041 263 9151ft 99kts
27-Jun-20 09:15 34.257001 -116.776743 261 8560ft 97kts
27-Jun-20 09:16 34.253450 -116.807005 261 8123ft 91kts
27-Jun-20 09:17 34.250623 -116.834864 263 7895ft 79kts
27-Jun-20 09:18 34.249981 -116.857776 269 7816ft 71kts
27-Jun-20 09:19 34.250165 -116.882717 273 7666ft 83kts
27-Jun-20 09:20 34.263345 -116.880610 85 7411ft 82kts
27-Jun-20 09:21 34.263793 -116.853104 89 6754ft 61kts
27-Jun-20 09:22 34.263823 -116.848552 88 6754ft 0kts
27-Jun-20 09:23 34.263830 -116.847130 89 6754ft 7kts
27-Jun-20 09:24 34.263277 -116.848015 269 6754ft 10kts
27-Jun-20 09:25 34.263258 -116.852031 269 6754ft 13kts
27-Jun-20 09:26 34.262702 -116.853614 180 6754ft 6kts
27-Jun-20 09:27 34.262183 -116.853138 144 6754ft 0kts
27-Jun-20 09:28 34.262171 -116.853190 277 6754ft 0kts
27-Jun-20 09:29 34.262171 -116.853190 277 6754ft 0kts
27-Jun-20 09:30 34.262171 -116.853190 277 6754ft 0kts
27-Jun-20 09:31 34.262171 -116.853190 277 6754ft 0kts
27-Jun-20 09:32 34.262171 -116.853190 277 6754ft 0kts

Navigation Log

Ident Type
Flight plan parsing failed, navigation log unavailable